Time;durP1;ratioP1;P1;durP2;ratioP2;P2;SDS_P1;SDS_P2;PMS_P1;PMS_P2;Temp;Humidity;BMP_temperature;BMP_pressure;BME280_temperature;BME280_humidity;BME280_pressure;Samples;Min_cycle;Max_cycle;Signal;HPM_P1;HPM_P2
2022/11/11 00:01:39;;;;;;;8.80;4.07;;;;;;;;;;5002096;28;20511;-43
2022/11/11 00:04:05;;;;;;;6.80;3.97;;;;;;;;;;5005594;28;20521;-43
2022/11/11 00:06:31;;;;;;;8.43;3.37;;;;;;;;;;5004907;28;20785;-43
2022/11/11 00:08:57;;;;;;;5.73;3.50;;;;;;;;;;4995852;28;20762;-44
2022/11/11 00:11:23;;;;;;;7.27;4.10;;;;;;;;;;5006620;28;20509;-44
2022/11/11 00:13:49;;;;;;;8.53;4.50;;;;;;;;;;5001436;28;20407;-44
2022/11/11 00:16:16;;;;;;;8.03;4.30;;;;;;;;;;5002688;28;20776;-46
2022/11/11 00:27:10;;;;;;;9.03;3.93;;;;;;;;;;4994650;28;20484;-44
2022/11/11 00:29:37;;;;;;;6.57;4.40;;;;;;;;;;5008197;28;20418;-45
2022/11/11 00:37:33;;;;;;;7.60;4.00;;;;;;;;;;5001595;28;20422;-44
2022/11/11 00:39:59;;;;;;;12.47;4.10;;;;;;;;;;5000619;28;20439;-43
2022/11/11 00:42:26;;;;;;;6.70;4.40;;;;;;;;;;5005305;28;20933;-43
2022/11/11 00:44:53;;;;;;;8.47;4.70;;;;;;;;;;4995821;28;20518;-44
2022/11/11 00:52:49;;;;;;;10.30;4.67;;;;;;;;;;5003243;28;20431;-44
2022/11/11 00:55:15;;;;;;;5.27;4.57;;;;;;;;;;5003343;28;20415;-45
2022/11/11 00:57:41;;;;;;;4.77;3.73;;;;;;;;;;5001805;28;20843;-43
2022/11/11 01:00:07;;;;;;;6.43;3.53;;;;;;;;;;5000111;28;20415;-43
2022/11/11 01:02:33;;;;;;;7.80;4.10;;;;;;;;;;5003601;28;21046;-44
2022/11/11 01:04:59;;;;;;;4.47;3.93;;;;;;;;;;4996509;28;20470;-44
2022/11/11 01:07:25;;;;;;;6.93;3.90;;;;;;;;;;5003910;28;20485;-43
2022/11/11 01:09:51;;;;;;;10.53;4.23;;;;;;;;;;4996699;28;20408;-44
2022/11/11 01:12:17;;;;;;;4.93;3.63;;;;;;;;;;5005899;28;20447;-44
2022/11/11 01:14:43;;;;;;;7.43;4.17;;;;;;;;;;5001744;28;20404;-44
2022/11/11 01:17:09;;;;;;;5.93;4.00;;;;;;;;;;5001048;28;20458;-45
2022/11/11 01:19:35;;;;;;;4.03;3.43;;;;;;;;;;4994918;28;20419;-47
2022/11/11 01:22:01;;;;;;;9.20;3.80;;;;;;;;;;5006514;28;20455;-44
2022/11/11 01:24:27;;;;;;;5.30;3.70;;;;;;;;;;4999471;28;20908;-44
2022/11/11 01:26:53;;;;;;;5.60;3.87;;;;;;;;;;5003253;28;20441;-43
2022/11/11 01:29:20;;;;;;;4.50;4.07;;;;;;;;;;4999471;28;20416;-44
2022/11/11 01:31:46;;;;;;;6.33;3.97;;;;;;;;;;5000531;28;20431;-46
2022/11/11 01:34:12;;;;;;;5.17;4.17;;;;;;;;;;5000342;28;20439;-43
2022/11/11 01:36:38;;;;;;;7.67;3.27;;;;;;;;;;5001147;28;20510;-44
2022/11/11 01:39:04;;;;;;;6.00;3.60;;;;;;;;;;5004896;28;20408;-44
2022/11/11 01:41:31;;;;;;;8.00;3.83;;;;;;;;;;5003699;28;20438;-44
2022/11/11 01:43:57;;;;;;;4.17;3.77;;;;;;;;;;4997773;28;20466;-46
2022/11/11 01:46:26;;;;;;;8.63;3.77;;;;;;;;;;4997354;28;20420;-44
2022/11/11 01:51:59;;;;;;;6.27;3.53;;;;;;;;;;5000639;28;20431;-43
2022/11/11 01:54:28;;;;;;;9.83;3.73;;;;;;;;;;5000282;28;20436;-43
2022/11/11 01:56:58;;;;;;;4.10;3.30;;;;;;;;;;5002409;28;20399;-46
2022/11/11 01:59:24;;;;;;;3.90;3.57;;;;;;;;;;5000137;28;20408;-47
2022/11/11 02:01:50;;;;;;;5.13;3.07;;;;;;;;;;5000232;28;20438;-47
2022/11/11 02:07:05;;;;;;;3.60;3.30;;;;;;;;;;4995028;28;20407;-47
2022/11/11 02:09:31;;;;;;;7.50;3.40;;;;;;;;;;5003877;28;20411;-45
2022/11/11 02:14:50;;;;;;;4.23;3.00;;;;;;;;;;4996130;28;20473;-45
2022/11/11 02:17:18;;;;;;;4.33;3.10;;;;;;;;;;5003453;28;20415;-46
2022/11/11 02:19:48;;;;;;;3.00;2.70;;;;;;;;;;5000655;28;20412;-44
2022/11/11 02:22:17;;;;;;;7.00;3.40;;;;;;;;;;5001428;28;20435;-47
2022/11/11 02:24:43;;;;;;;6.67;2.93;;;;;;;;;;5001310;28;20455;-44
2022/11/11 02:27:11;;;;;;;6.13;3.20;;;;;;;;;;5001011;28;20415;-44
2022/11/11 02:29:38;;;;;;;6.70;3.27;;;;;;;;;;5004063;28;20900;-44
2022/11/11 02:32:04;;;;;;;10.03;4.43;;;;;;;;;;5003219;28;20442;-43
2022/11/11 02:34:32;;;;;;;5.93;3.70;;;;;;;;;;5008648;28;20453;-44
2022/11/11 02:36:59;;;;;;;5.53;2.93;;;;;;;;;;4994854;28;20411;-44
2022/11/11 02:39:25;;;;;;;4.40;3.20;;;;;;;;;;5002115;28;20904;-44
2022/11/11 02:41:57;;;;;;;6.27;3.20;;;;;;;;;;5003590;28;21024;-48
2022/11/11 02:44:28;;;;;;;5.53;3.07;;;;;;;;;;5003179;28;20462;-44
2022/11/11 02:46:54;;;;;;;4.50;3.30;;;;;;;;;;5005574;28;20418;-47
2022/11/11 02:49:20;;;;;;;6.50;3.30;;;;;;;;;;5005744;28;20471;-47
2022/11/11 02:51:47;;;;;;;5.10;3.60;;;;;;;;;;5006762;28;20439;-44
2022/11/11 02:54:13;;;;;;;3.60;3.00;;;;;;;;;;5002819;28;20418;-44
2022/11/11 02:59:23;;;;;;;4.70;3.40;;;;;;;;;;5006340;28;20414;-44
2022/11/11 03:01:49;;;;;;;8.73;3.10;;;;;;;;;;5003549;28;20440;-44
2022/11/11 03:04:15;;;;;;;8.93;3.40;;;;;;;;;;5005110;28;20458;-45
2022/11/11 03:06:41;;;;;;;3.73;3.30;;;;;;;;;;5003705;28;20420;-45
2022/11/11 03:09:10;;;;;;;4.50;3.00;;;;;;;;;;5003941;28;20416;-45
2022/11/11 03:11:37;;;;;;;6.20;3.00;;;;;;;;;;5003094;28;20800;-45
2022/11/11 03:14:04;;;;;;;4.50;3.60;;;;;;;;;;5002518;28;20910;-45
2022/11/11 03:19:14;;;;;;;5.20;3.20;;;;;;;;;;4998515;28;20422;-45
2022/11/11 03:21:41;;;;;;;6.27;3.00;;;;;;;;;;5000023;28;20440;-45
2022/11/11 03:24:07;;;;;;;4.43;3.87;;;;;;;;;;5001977;28;20471;-44
2022/11/11 03:26:33;;;;;;;3.33;3.00;;;;;;;;;;5002267;28;20411;-45
2022/11/11 03:28:58;;;;;;;7.27;3.27;;;;;;;;;;5005718;28;20491;-45
2022/11/11 03:31:24;;;;;;;7.43;2.97;;;;;;;;;;5004083;28;20477;-45
2022/11/11 03:33:50;;;;;;;3.97;2.77;;;;;;;;;;5021629;28;21013;-45
2022/11/11 03:36:16;;;;;;;13.63;4.53;;;;;;;;;;5002673;28;20506;-45
2022/11/11 03:38:42;;;;;;;5.13;3.70;;;;;;;;;;4997773;28;20471;-45
2022/11/11 03:41:08;;;;;;;3.50;2.90;;;;;;;;;;5004816;28;20493;-46
2022/11/11 03:43:34;;;;;;;4.50;3.47;;;;;;;;;;5002963;28;20454;-46
2022/11/11 03:46:01;;;;;;;6.43;3.60;;;;;;;;;;5005331;28;20400;-45
2022/11/11 03:48:29;;;;;;;7.07;3.03;;;;;;;;;;5002039;28;20419;-45
2022/11/11 03:50:55;;;;;;;4.43;3.00;;;;;;;;;;5004336;28;20413;-45
2022/11/11 03:53:22;;;;;;;5.40;3.50;;;;;;;;;;5001705;28;20471;-45
2022/11/11 03:55:48;;;;;;;4.73;3.27;;;;;;;;;;5002967;28;20426;-45
2022/11/11 03:58:14;;;;;;;4.13;2.67;;;;;;;;;;5005181;28;20865;-46
2022/11/11 04:00:40;;;;;;;3.10;2.80;;;;;;;;;;5000792;28;20426;-46
2022/11/11 04:11:27;;;;;;;3.13;2.43;;;;;;;;;;5003031;28;20426;-45
2022/11/11 04:16:38;;;;;;;3.53;2.60;;;;;;;;;;4999541;28;20458;-45
2022/11/11 04:21:48;;;;;;;5.60;2.77;;;;;;;;;;5002078;28;20481;-45
2022/11/11 04:27:05;;;;;;;4.30;3.13;;;;;;;;;;4996157;28;20458;-45
2022/11/11 04:29:31;;;;;;;3.53;3.10;;;;;;;;;;5005473;28;21000;-45
2022/11/11 04:34:44;;;;;;;4.20;2.93;;;;;;;;;;4997508;28;20439;-45
2022/11/11 04:37:10;;;;;;;10.13;3.20;;;;;;;;;;5004569;28;20748;-45
2022/11/11 04:42:21;;;;;;;3.10;2.80;;;;;;;;;;5002155;28;20426;-46
2022/11/11 04:47:32;;;;;;;3.73;2.90;;;;;;;;;;4997438;28;20543;-47
2022/11/11 04:49:58;;;;;;;6.90;2.90;;;;;;;;;;5001471;28;20450;-46
2022/11/11 04:52:27;;;;;;;3.93;2.57;;;;;;;;;;5000868;28;20468;-45
2022/11/11 04:57:39;;;;;;;3.17;2.90;;;;;;;;;;5005502;28;20421;-45
2022/11/11 05:00:05;;;;;;;3.07;2.80;;;;;;;;;;4999608;28;20415;-44
2022/11/11 05:05:16;;;;;;;2.97;2.77;;;;;;;;;;5003986;28;20422;-46
2022/11/11 05:10:26;;;;;;;3.13;2.70;;;;;;;;;;5000788;28;20441;-46
2022/11/11 05:12:52;;;;;;;3.60;3.30;;;;;;;;;;5003264;28;20431;-45
2022/11/11 05:26:17;;;;;;;4.80;2.67;;;;;;;;;;5002224;28;20418;-47
2022/11/11 05:28:43;;;;;;;4.80;2.60;;;;;;;;;;5003286;28;20410;-45
2022/11/11 05:31:09;;;;;;;3.57;3.27;;;;;;;;;;4998646;28;20513;-45
2022/11/11 05:33:35;;;;;;;4.63;3.07;;;;;;;;;;5003102;28;20449;-45
2022/11/11 05:36:01;;;;;;;3.80;3.10;;;;;;;;;;5002281;28;20441;-45
2022/11/11 05:38:28;;;;;;;4.67;3.87;;;;;;;;;;5000920;28;20403;-46
2022/11/11 05:40:55;;;;;;;2.80;2.60;;;;;;;;;;5002737;28;20402;-45
2022/11/11 05:43:21;;;;;;;6.63;3.27;;;;;;;;;;4995340;28;20456;-45
2022/11/11 05:45:46;;;;;;;3.93;3.00;;;;;;;;;;5001444;28;20846;-45
2022/11/11 05:48:12;;;;;;;3.30;2.80;;;;;;;;;;5000210;28;20852;-45
2022/11/11 05:50:41;;;;;;;3.10;2.90;;;;;;;;;;5006349;28;20412;-45
2022/11/11 05:53:07;;;;;;;3.03;2.83;;;;;;;;;;5001451;28;20418;-45
2022/11/11 05:55:33;;;;;;;3.17;2.90;;;;;;;;;;4998420;28;20420;-46
2022/11/11 05:57:59;;;;;;;4.90;3.40;;;;;;;;;;5001442;28;20469;-45
2022/11/11 06:00:24;;;;;;;3.70;3.40;;;;;;;;;;4999661;28;20411;-45
2022/11/11 06:02:50;;;;;;;5.83;2.90;;;;;;;;;;5003791;28;20431;-45
2022/11/11 06:05:16;;;;;;;4.43;3.03;;;;;;;;;;5007662;28;20415;-46
2022/11/11 06:07:42;;;;;;;6.10;3.27;;;;;;;;;;5008534;28;20443;-45
2022/11/11 06:13:08;;;;;;;4.70;3.33;;;;;;;;;;5006755;28;20441;-45
2022/11/11 06:15:35;;;;;;;7.30;3.30;;;;;;;;;;5006688;28;20608;-45
2022/11/11 06:18:01;;;;;;;8.10;3.70;;;;;;;;;;5005852;28;20686;-46
2022/11/11 06:20:27;;;;;;;6.17;3.43;;;;;;;;;;5004030;28;20494;-45
2022/11/11 06:22:56;;;;;;;5.30;3.20;;;;;;;;;;5006124;28;20533;-45
2022/11/11 06:28:08;;;;;;;4.03;3.73;;;;;;;;;;5003186;28;20462;-47
2022/11/11 06:30:34;;;;;;;4.90;3.23;;;;;;;;;;5002995;28;20415;-47
2022/11/11 06:33:00;;;;;;;6.60;3.50;;;;;;;;;;5003040;28;20441;-44
2022/11/11 06:35:26;;;;;;;2.97;2.73;;;;;;;;;;5007298;28;20501;-45
2022/11/11 06:37:51;;;;;;;4.43;3.43;;;;;;;;;;5001600;28;20441;-45
2022/11/11 06:40:18;;;;;;;4.47;3.90;;;;;;;;;;5001996;28;20434;-45
2022/11/11 06:42:44;;;;;;;4.10;3.77;;;;;;;;;;5003075;28;20428;-45
2022/11/11 06:45:10;;;;;;;5.80;3.33;;;;;;;;;;5002947;28;20455;-46
2022/11/11 06:47:36;;;;;;;3.47;3.17;;;;;;;;;;5003367;28;20416;-45
2022/11/11 06:50:02;;;;;;;5.47;3.57;;;;;;;;;;5007444;28;20781;-46
2022/11/11 06:52:28;;;;;;;3.90;3.60;;;;;;;;;;5005545;28;20439;-45
2022/11/11 06:54:53;;;;;;;8.57;3.37;;;;;;;;;;4999891;28;20875;-46
2022/11/11 06:57:22;;;;;;;4.33;3.30;;;;;;;;;;4999967;28;20505;-45
2022/11/11 06:59:48;;;;;;;6.03;3.20;;;;;;;;;;5004639;28;20473;-46
2022/11/11 07:02:14;;;;;;;3.80;3.50;;;;;;;;;;5005184;28;20822;-46
2022/11/11 07:04:40;;;;;;;3.93;3.33;;;;;;;;;;5003143;28;20455;-45
2022/11/11 07:07:06;;;;;;;7.77;3.80;;;;;;;;;;5006938;28;20824;-45
2022/11/11 07:09:32;;;;;;;6.47;3.70;;;;;;;;;;5004474;28;20464;-46
2022/11/11 07:11:58;;;;;;;3.90;3.03;;;;;;;;;;4997725;28;20514;-45
2022/11/11 07:14:24;;;;;;;3.80;3.33;;;;;;;;;;5005599;28;20421;-45
2022/11/11 07:16:50;;;;;;;4.80;3.47;;;;;;;;;;5002649;28;20447;-46
2022/11/11 07:19:16;;;;;;;5.23;3.17;;;;;;;;;;5003341;28;20495;-45
2022/11/11 07:21:42;;;;;;;5.63;3.30;;;;;;;;;;5003216;28;20463;-45
2022/11/11 07:24:08;;;;;;;5.73;3.00;;;;;;;;;;5002793;28;20545;-45
2022/11/11 07:26:34;;;;;;;4.30;2.90;;;;;;;;;;4991534;28;20972;-45
2022/11/11 07:29:00;;;;;;;3.27;2.97;;;;;;;;;;5002599;28;20958;-45
2022/11/11 07:31:26;;;;;;;7.10;3.60;;;;;;;;;;5000806;28;20459;-46
2022/11/11 07:33:53;;;;;;;7.63;3.23;;;;;;;;;;5004453;28;20442;-46
2022/11/11 07:36:19;;;;;;;5.87;3.23;;;;;;;;;;4999126;28;20503;-45
2022/11/11 07:38:45;;;;;;;4.43;2.80;;;;;;;;;;5002056;28;20444;-46
2022/11/11 07:41:11;;;;;;;5.03;3.47;;;;;;;;;;5001589;28;20432;-45
2022/11/11 07:43:37;;;;;;;3.30;3.00;;;;;;;;;;5002609;28;20464;-45
2022/11/11 07:46:03;;;;;;;3.80;2.80;;;;;;;;;;5005996;28;20754;-47
2022/11/11 07:48:29;;;;;;;4.13;2.97;;;;;;;;;;5004641;28;20857;-45
2022/11/11 07:50:55;;;;;;;4.37;3.53;;;;;;;;;;4997062;28;20506;-45
2022/11/11 07:53:21;;;;;;;4.83;3.07;;;;;;;;;;5001664;28;20418;-46
2022/11/11 07:55:47;;;;;;;3.43;3.10;;;;;;;;;;5002333;28;20412;-45
2022/11/11 07:58:13;;;;;;;6.63;3.00;;;;;;;;;;5000048;28;20720;-46
2022/11/11 08:00:38;;;;;;;5.40;3.20;;;;;;;;;;5002047;28;20446;-46
2022/11/11 08:03:06;;;;;;;4.03;3.30;;;;;;;;;;5001678;28;20961;-45
2022/11/11 08:05:32;;;;;;;3.33;2.87;;;;;;;;;;5001938;28;20494;-47
2022/11/11 08:08:03;;;;;;;3.43;2.87;;;;;;;;;;4996569;28;20416;-46
2022/11/11 08:10:29;;;;;;;5.47;3.60;;;;;;;;;;5004362;28;20951;-47
2022/11/11 08:15:40;;;;;;;4.03;2.70;;;;;;;;;;5000200;28;20411;-46
2022/11/11 08:18:06;;;;;;;5.63;3.07;;;;;;;;;;5002264;28;20773;-45
2022/11/11 08:20:32;;;;;;;3.10;2.80;;;;;;;;;;5001011;28;20416;-46
2022/11/11 08:22:58;;;;;;;4.80;3.20;;;;;;;;;;5001301;28;20433;-46
2022/11/11 08:25:25;;;;;;;3.00;2.77;;;;;;;;;;5000658;28;20420;-45
2022/11/11 08:27:58;;;;;;;7.50;3.17;;;;;;;;;;5003466;28;20453;-45
2022/11/11 08:30:23;;;;;;;3.30;2.60;;;;;;;;;;5002559;28;20424;-45
2022/11/11 08:32:56;;;;;;;3.80;3.13;;;;;;;;;;4998097;28;20532;-46
2022/11/11 08:35:22;;;;;;;3.67;2.23;;;;;;;;;;4997723;28;20420;-45
2022/11/11 08:37:48;;;;;;;4.83;2.90;;;;;;;;;;5005151;28;20426;-45
2022/11/11 08:40:14;;;;;;;4.30;2.70;;;;;;;;;;5003322;28;20473;-48
2022/11/11 08:42:41;;;;;;;2.73;2.40;;;;;;;;;;5004135;28;20435;-47
2022/11/11 08:45:07;;;;;;;2.73;2.53;;;;;;;;;;5000027;28;20485;-46
2022/11/11 08:47:33;;;;;;;3.37;2.57;;;;;;;;;;5002657;28;20412;-46
2022/11/11 08:49:59;;;;;;;3.40;2.40;;;;;;;;;;4995885;28;20851;-45
2022/11/11 08:52:25;;;;;;;3.43;2.60;;;;;;;;;;5003651;28;20440;-45
2022/11/11 08:54:51;;;;;;;5.90;2.40;;;;;;;;;;5001013;28;20519;-45
2022/11/11 08:57:17;;;;;;;2.47;2.27;;;;;;;;;;5001283;28;20421;-45
2022/11/11 08:59:43;;;;;;;5.03;2.40;;;;;;;;;;5001408;28;20428;-45
2022/11/11 09:02:11;;;;;;;3.63;2.77;;;;;;;;;;5002118;28;20419;-45
2022/11/11 09:04:37;;;;;;;6.13;2.30;;;;;;;;;;5003048;28;20468;-46
2022/11/11 09:07:03;;;;;;;2.73;2.47;;;;;;;;;;5001533;28;20441;-46
2022/11/11 09:09:29;;;;;;;3.47;2.47;;;;;;;;;;5003593;28;20425;-45
2022/11/11 09:11:54;;;;;;;6.70;2.50;;;;;;;;;;4998729;28;20440;-45
2022/11/11 09:14:21;;;;;;;3.80;2.30;;;;;;;;;;4999166;28;20393;-45
2022/11/11 09:16:47;;;;;;;2.20;2.00;;;;;;;;;;5000619;28;20959;-46
2022/11/11 09:19:13;;;;;;;4.30;2.60;;;;;;;;;;5000160;28;20468;-47
2022/11/11 09:21:38;;;;;;;3.43;2.20;;;;;;;;;;5000526;28;20454;-46
2022/11/11 09:24:05;;;;;;;3.43;2.40;;;;;;;;;;5004549;28;20444;-46
2022/11/11 09:26:31;;;;;;;2.40;2.20;;;;;;;;;;5001923;28;20891;-46
2022/11/11 09:28:56;;;;;;;3.00;2.70;;;;;;;;;;5003088;28;20549;-46
2022/11/11 09:31:22;;;;;;;4.53;2.63;;;;;;;;;;4996705;28;20921;-46
2022/11/11 09:33:50;;;;;;;2.93;2.27;;;;;;;;;;5002075;28;20527;-46
2022/11/11 09:36:15;;;;;;;2.63;2.23;;;;;;;;;;5001991;28;20396;-45
2022/11/11 09:38:41;;;;;;;2.47;2.27;;;;;;;;;;5004075;28;20415;-45
2022/11/11 09:41:13;;;;;;;2.80;2.13;;;;;;;;;;5005926;28;20449;-45
2022/11/11 09:43:39;;;;;;;2.30;2.10;;;;;;;;;;5006086;28;20452;-45
2022/11/11 09:46:08;;;;;;;2.63;2.40;;;;;;;;;;5000993;28;20410;-45
2022/11/11 09:48:37;;;;;;;3.13;2.10;;;;;;;;;;5012931;28;20389;-45
2022/11/11 09:51:05;;;;;;;2.33;2.13;;;;;;;;;;5005082;28;20449;-45
2022/11/11 09:53:36;;;;;;;2.97;2.70;;;;;;;;;;5006772;28;20390;-46
2022/11/11 09:56:07;;;;;;;3.80;2.50;;;;;;;;;;4995960;28;20407;-45
2022/11/11 09:58:59;;;;;;;2.80;2.40;;;;;;;;;;5003858;28;20798;-45
2022/11/11 10:01:26;;;;;;;4.43;2.30;;;;;;;;;;4997746;28;20543;-47
2022/11/11 10:04:04;;;;;;;2.20;1.93;;;;;;;;;;4991685;28;21920;-45
2022/11/11 10:06:32;;;;;;;3.60;2.43;;;;;;;;;;5004131;28;20453;-45
2022/11/11 10:09:13;;;;;;;2.37;2.17;;;;;;;;;;5002611;28;20525;-46
2022/11/11 10:11:53;;;;;;;2.73;2.03;;;;;;;;;;5004666;28;20878;-47
2022/11/11 10:14:19;;;;;;;3.00;2.30;;;;;;;;;;5001873;28;20480;-46
2022/11/11 10:16:59;;;;;;;6.57;2.27;;;;;;;;;;5004673;28;20423;-45
2022/11/11 10:19:30;;;;;;;2.00;1.90;;;;;;;;;;5007675;28;20412;-45
2022/11/11 10:22:06;;;;;;;2.03;1.90;;;;;;;;;;4999988;28;20445;-46
2022/11/11 10:24:34;;;;;;;2.83;1.80;;;;;;;;;;5003246;28;21215;-47
2022/11/11 10:27:02;;;;;;;4.13;2.60;;;;;;;;;;4995128;28;20470;-45
2022/11/11 10:29:31;;;;;;;2.30;1.57;;;;;;;;;;5003267;28;20489;-46
2022/11/11 10:32:15;;;;;;;2.80;2.27;;;;;;;;;;5004256;28;20436;-46
2022/11/11 10:34:41;;;;;;;3.67;1.87;;;;;;;;;;5001883;28;20516;-45
2022/11/11 10:37:16;;;;;;;2.30;2.10;;;;;;;;;;5005743;28;20503;-46
2022/11/11 10:39:59;;;;;;;2.13;1.60;;;;;;;;;;5005287;28;20417;-46
2022/11/11 10:42:25;;;;;;;2.30;2.10;;;;;;;;;;5005150;28;20440;-45
2022/11/11 10:44:54;;;;;;;2.20;2.00;;;;;;;;;;5011021;28;20470;-47
2022/11/11 10:47:20;;;;;;;4.07;1.87;;;;;;;;;;5002162;28;20767;-46
2022/11/11 10:49:56;;;;;;;2.33;1.60;;;;;;;;;;5003919;28;20482;-46
2022/11/11 10:52:23;;;;;;;4.40;1.80;;;;;;;;;;5001618;28;20428;-46
2022/11/11 10:54:54;;;;;;;2.30;1.70;;;;;;;;;;5003454;28;20916;-46
2022/11/11 10:57:29;;;;;;;3.40;1.47;;;;;;;;;;5002551;28;20419;-47
2022/11/11 11:00:05;;;;;;;4.03;1.93;;;;;;;;;;5004932;28;20498;-46
2022/11/11 11:02:38;;;;;;;2.50;1.77;;;;;;;;;;5003629;28;20940;-46
2022/11/11 11:05:16;;;;;;;3.83;1.60;;;;;;;;;;4999681;28;20485;-46
2022/11/11 11:07:50;;;;;;;3.87;1.43;;;;;;;;;;5001687;28;20421;-46
2022/11/11 11:10:24;;;;;;;2.00;1.30;;;;;;;;;;5005905;28;20573;-46
2022/11/11 11:12:53;;;;;;;1.70;1.40;;;;;;;;;;5008531;28;20445;-47
2022/11/11 11:15:22;;;;;;;2.03;1.60;;;;;;;;;;5006083;28;20423;-46
2022/11/11 11:17:54;;;;;;;1.57;1.47;;;;;;;;;;5001685;28;20925;-46
2022/11/11 11:20:21;;;;;;;2.77;1.50;;;;;;;;;;5001957;28;20411;-46
2022/11/11 11:22:46;;;;;;;2.40;1.20;;;;;;;;;;5003150;28;20479;-46
2022/11/11 11:25:13;;;;;;;1.77;1.67;;;;;;;;;;5001133;28;20447;-46
2022/11/11 11:27:39;;;;;;;2.00;1.47;;;;;;;;;;5006663;28;20502;-47
2022/11/11 11:30:18;;;;;;;1.60;1.30;;;;;;;;;;5002206;28;20504;-46
2022/11/11 11:32:58;;;;;;;3.70;1.50;;;;;;;;;;5006063;28;20441;-47
2022/11/11 11:35:43;;;;;;;2.67;1.53;;;;;;;;;;5003470;28;20465;-48
2022/11/11 11:38:10;;;;;;;2.00;1.50;;;;;;;;;;4996036;28;20451;-47
2022/11/11 11:40:55;;;;;;;1.17;1.07;;;;;;;;;;5004427;28;20455;-44
2022/11/11 11:43:27;;;;;;;1.10;1.00;;;;;;;;;;5005650;28;20485;-45
2022/11/11 11:45:58;;;;;;;2.30;1.20;;;;;;;;;;5001091;28;20412;-45
2022/11/11 11:48:24;;;;;;;1.73;1.20;;;;;;;;;;5003526;28;20412;-45
2022/11/11 11:50:55;;;;;;;3.10;1.70;;;;;;;;;;4994836;28;20507;-45
2022/11/11 11:53:44;;;;;;;1.60;1.10;;;;;;;;;;5001512;28;20428;-45
2022/11/11 11:56:14;;;;;;;1.30;1.20;;;;;;;;;;4991760;28;20481;-47
2022/11/11 11:58:42;;;;;;;1.40;1.00;;;;;;;;;;5003149;28;20403;-44
2022/11/11 12:01:08;;;;;;;2.40;1.27;;;;;;;;;;4999966;28;20788;-47
2022/11/11 12:03:37;;;;;;;2.40;1.40;;;;;;;;;;5003647;28;20462;-46
2022/11/11 12:06:13;;;;;;;2.43;1.20;;;;;;;;;;4998470;28;20407;-45
2022/11/11 12:08:42;;;;;;;1.70;1.40;;;;;;;;;;5009857;28;20410;-44
2022/11/11 12:11:20;;;;;;;3.53;1.43;;;;;;;;;;5003251;28;20955;-44
2022/11/11 12:13:49;;;;;;;2.10;1.40;;;;;;;;;;5003409;28;20439;-44
2022/11/11 12:16:25;;;;;;;1.53;1.40;;;;;;;;;;5001287;28;20424;-44
2022/11/11 12:19:10;;;;;;;3.10;1.43;;;;;;;;;;5001741;28;20421;-44
2022/11/11 12:21:55;;;;;;;1.93;1.20;;;;;;;;;;4994916;28;20441;-47
2022/11/11 12:24:21;;;;;;;1.50;1.40;;;;;;;;;;5003609;28;20512;-44
2022/11/11 12:26:53;;;;;;;2.33;1.37;;;;;;;;;;5002740;28;20839;-44
2022/11/11 12:29:19;;;;;;;1.63;1.30;;;;;;;;;;5004862;28;20901;-45
2022/11/11 12:32:03;;;;;;;4.00;1.67;;;;;;;;;;5003884;28;20437;-47
2022/11/11 12:34:48;;;;;;;4.50;1.53;;;;;;;;;;5001259;28;21100;-46
2022/11/11 12:37:32;;;;;;;1.27;1.17;;;;;;;;;;4994751;28;20498;-46
2022/11/11 12:40:07;;;;;;;1.23;1.10;;;;;;;;;;5006314;28;20466;-47
2022/11/11 12:42:43;;;;;;;5.63;1.37;;;;;;;;;;4997013;28;20525;-46
2022/11/11 12:45:16;;;;;;;4.27;1.50;;;;;;;;;;4993251;28;20983;-46
2022/11/11 12:47:45;;;;;;;4.60;1.47;;;;;;;;;;4996421;28;20835;-45
2022/11/11 12:50:24;;;;;;;1.50;1.27;;;;;;;;;;5004035;28;20500;-46
2022/11/11 12:52:58;;;;;;;2.40;1.40;;;;;;;;;;4996515;28;20944;-46
2022/11/11 12:55:33;;;;;;;1.93;1.50;;;;;;;;;;5001422;28;20451;-46
2022/11/11 12:58:17;;;;;;;6.93;1.30;;;;;;;;;;5003045;28;20491;-46
2022/11/11 13:01:02;;;;;;;2.10;1.40;;;;;;;;;;5001038;28;20413;-47
2022/11/11 13:03:50;;;;;;;3.13;1.30;;;;;;;;;;5000174;28;20468;-48
2022/11/11 13:06:30;;;;;;;2.20;1.30;;;;;;;;;;5000620;28;20956;-47
2022/11/11 13:09:02;;;;;;;1.40;1.30;;;;;;;;;;5003238;28;20408;-46
2022/11/11 13:11:32;;;;;;;5.30;1.50;;;;;;;;;;5007553;28;21000;-46
2022/11/11 13:14:17;;;;;;;3.67;1.50;;;;;;;;;;5002945;28;20504;-46
2022/11/11 13:16:43;;;;;;;1.93;1.20;;;;;;;;;;5002380;28;20516;-47
2022/11/11 13:19:23;;;;;;;2.10;1.30;;;;;;;;;;5004737;28;20886;-46
2022/11/11 13:21:54;;;;;;;4.17;1.63;;;;;;;;;;5001235;28;20452;-46
2022/11/11 13:24:21;;;;;;;1.60;1.30;;;;;;;;;;4996333;28;20969;-47
2022/11/11 13:27:22;;;;;;;2.53;1.30;;;;;;;;;;5002122;28;20443;-48
2022/11/11 13:30:00;;;;;;;1.83;1.30;;;;;;;;;;4973487;28;20424;-46
2022/11/11 13:32:32;;;;;;;4.23;1.27;;;;;;;;;;5000710;28;20522;-48
2022/11/11 13:34:59;;;;;;;3.00;1.40;;;;;;;;;;4995762;28;20426;-46
2022/11/11 13:37:27;;;;;;;1.60;1.20;;;;;;;;;;5001051;28;20421;-46
2022/11/11 13:39:53;;;;;;;2.53;1.40;;;;;;;;;;5002490;28;20415;-47
2022/11/11 13:42:22;;;;;;;1.30;1.00;;;;;;;;;;5000103;28;20932;-47
2022/11/11 13:44:53;;;;;;;2.40;1.70;;;;;;;;;;4995963;28;20961;-47
2022/11/11 13:47:20;;;;;;;1.73;1.40;;;;;;;;;;5004960;28;20914;-48
2022/11/11 13:49:52;;;;;;;2.70;1.60;;;;;;;;;;5000924;28;20447;-47
2022/11/11 13:52:20;;;;;;;1.73;1.63;;;;;;;;;;5003457;28;20434;-46
2022/11/11 13:54:51;;;;;;;1.93;1.50;;;;;;;;;;4996557;28;20416;-46
2022/11/11 13:57:20;;;;;;;3.33;1.83;;;;;;;;;;5013688;28;20521;-47
2022/11/11 14:00:06;;;;;;;2.00;1.90;;;;;;;;;;5001535;28;20787;-46
2022/11/11 14:02:35;;;;;;;2.07;1.87;;;;;;;;;;5001536;28;20994;-45
2022/11/11 14:05:01;;;;;;;1.67;1.57;;;;;;;;;;4985566;28;20461;-46
2022/11/11 14:07:46;;;;;;;2.43;2.27;;;;;;;;;;4986263;28;20394;-46
2022/11/11 14:10:18;;;;;;;2.33;1.80;;;;;;;;;;4993899;28;20390;-46
2022/11/11 14:12:51;;;;;;;2.77;2.20;;;;;;;;;;5000069;28;20439;-47
2022/11/11 14:15:33;;;;;;;2.93;1.40;;;;;;;;;;4983942;28;20402;-45
2022/11/11 14:18:00;;;;;;;2.63;2.10;;;;;;;;;;4993107;28;20947;-45
2022/11/11 14:20:34;;;;;;;2.07;1.90;;;;;;;;;;5001562;28;20397;-46
2022/11/11 14:23:19;;;;;;;2.07;1.97;;;;;;;;;;4996458;28;20485;-45
2022/11/11 14:25:46;;;;;;;3.47;2.27;;;;;;;;;;4998052;28;20497;-46
2022/11/11 14:28:29;;;;;;;2.27;2.07;;;;;;;;;;5003920;28;20421;-46
2022/11/11 14:30:58;;;;;;;2.00;1.90;;;;;;;;;;5002265;28;20410;-47
2022/11/11 14:33:47;;;;;;;3.00;1.97;;;;;;;;;;5002424;28;20793;-45
2022/11/11 14:36:42;;;;;;;2.27;2.07;;;;;;;;;;5000810;28;20820;-45
2022/11/11 14:39:27;;;;;;;2.30;2.10;;;;;;;;;;4991639;28;20614;-46
2022/11/11 14:41:53;;;;;;;3.50;2.00;;;;;;;;;;5005166;28;20426;-45
2022/11/11 14:44:25;;;;;;;5.80;2.30;;;;;;;;;;5004164;28;20951;-45
2022/11/11 14:47:06;;;;;;;1.93;1.83;;;;;;;;;;5004144;28;20406;-45
2022/11/11 14:49:41;;;;;;;3.13;2.80;;;;;;;;;;5003283;28;20460;-45
2022/11/11 14:52:22;;;;;;;2.23;2.07;;;;;;;;;;5000848;28;20533;-45
2022/11/11 14:55:01;;;;;;;7.00;2.30;;;;;;;;;;5002492;28;20390;-47
2022/11/11 14:57:35;;;;;;;6.87;2.47;;;;;;;;;;5006735;28;20425;-45
2022/11/11 15:00:02;;;;;;;2.37;2.13;;;;;;;;;;4996610;28;20395;-45
2022/11/11 15:02:30;;;;;;;2.13;1.97;;;;;;;;;;5005996;28;20435;-45
2022/11/11 15:04:59;;;;;;;3.03;2.83;;;;;;;;;;5001436;28;21096;-46
2022/11/11 15:07:44;;;;;;;2.30;2.13;;;;;;;;;;5000436;28;20398;-45
2022/11/11 15:10:18;;;;;;;3.97;2.50;;;;;;;;;;4997991;28;20432;-46
2022/11/11 15:13:03;;;;;;;5.27;2.30;;;;;;;;;;5005165;28;20442;-46
2022/11/11 15:15:35;;;;;;;3.30;3.00;;;;;;;;;;5003002;28;20494;-44
2022/11/11 15:18:24;;;;;;;2.70;2.50;;;;;;;;;;4994691;28;20523;-45
2022/11/11 15:20:59;;;;;;;4.93;2.90;;;;;;;;;;5007551;28;20443;-46
2022/11/11 15:23:31;;;;;;;3.27;2.97;;;;;;;;;;5002287;28;20923;-45
2022/11/11 15:26:01;;;;;;;3.23;3.03;;;;;;;;;;5008289;28;20414;-45
2022/11/11 15:28:42;;;;;;;4.37;2.93;;;;;;;;;;5002274;28;20397;-45
2022/11/11 15:31:24;;;;;;;3.10;2.80;;;;;;;;;;4998160;28;20434;-46
2022/11/11 15:33:57;;;;;;;6.13;3.00;;;;;;;;;;5005190;28;20860;-45
2022/11/11 15:36:52;;;;;;;3.43;2.97;;;;;;;;;;5002034;28;20429;-45
2022/11/11 15:39:21;;;;;;;3.20;2.73;;;;;;;;;;4991851;28;20425;-45
2022/11/11 15:41:49;;;;;;;4.00;3.07;;;;;;;;;;5007549;28;20763;-45
2022/11/11 15:44:15;;;;;;;6.30;3.70;;;;;;;;;;5004208;28;20519;-45
2022/11/11 15:46:42;;;;;;;3.20;2.97;;;;;;;;;;5004225;28;20446;-45
2022/11/11 15:49:14;;;;;;;3.67;2.90;;;;;;;;;;5002357;28;20414;-46
2022/11/11 15:51:41;;;;;;;3.00;2.30;;;;;;;;;;5001221;28;20467;-46
2022/11/11 15:54:10;;;;;;;4.13;2.73;;;;;;;;;;5001682;28;20841;-45
2022/11/11 15:56:37;;;;;;;3.87;2.73;;;;;;;;;;5001722;28;21003;-45
2022/11/11 15:59:22;;;;;;;7.10;3.10;;;;;;;;;;5006034;28;20413;-45
2022/11/11 16:01:48;;;;;;;4.53;2.70;;;;;;;;;;5001212;28;20468;-45
2022/11/11 16:04:17;;;;;;;4.20;2.50;;;;;;;;;;5000990;28;20974;-47
2022/11/11 16:06:43;;;;;;;3.20;2.83;;;;;;;;;;4996413;28;20412;-46
2022/11/11 16:09:11;;;;;;;4.13;3.00;;;;;;;;;;5004683;28;20435;-45
2022/11/11 16:11:38;;;;;;;6.10;2.50;;;;;;;;;;5001012;28;20442;-45
2022/11/11 16:14:05;;;;;;;3.23;2.93;;;;;;;;;;5004027;28;20417;-46
2022/11/11 16:16:32;;;;;;;2.57;2.37;;;;;;;;;;5001458;28;20419;-47
2022/11/11 16:19:18;;;;;;;3.50;3.10;;;;;;;;;;5001451;28;20413;-46
2022/11/11 16:21:47;;;;;;;6.17;3.30;;;;;;;;;;5001915;28;20444;-46
2022/11/11 16:24:26;;;;;;;3.97;2.80;;;;;;;;;;5001232;28;20801;-45